createdAt,value
2022-11-15T00:01:18.822Z,74.00
2022-11-15T00:02:39.430Z,73.82
2022-11-15T00:03:59.474Z,73.77
2022-11-15T00:05:19.419Z,74.06
2022-11-15T00:06:47.987Z,74.46
2022-11-15T00:08:08.055Z,74.89
2022-11-15T00:11:05.472Z,74.57
2022-11-15T00:12:28.969Z,74.81
2022-11-15T00:13:49.075Z,74.57
2022-11-15T00:15:09.243Z,74.57
2022-11-15T00:16:29.414Z,74.54
2022-11-15T00:17:49.724Z,74.46
2022-11-15T00:19:09.862Z,74.37
2022-11-15T00:20:30.183Z,74.42
2022-11-15T00:21:53.006Z,74.67
2022-11-15T00:23:13.052Z,74.59
2022-11-15T00:24:33.136Z,74.34
2022-11-15T00:25:56.583Z,74.17
2022-11-15T00:27:23.595Z,74.51
2022-11-15T00:28:45.640Z,74.63
2022-11-15T00:30:05.953Z,74.91
2022-11-15T00:31:28.771Z,75.31
2022-11-15T00:32:49.397Z,75.23
2022-11-15T00:34:12.722Z,75.32
2022-11-15T00:35:35.660Z,75.28
2022-11-15T00:36:55.662Z,75.31
2022-11-15T00:38:16.417Z,75.11
2022-11-15T00:39:36.198Z,74.93
2022-11-15T00:40:58.994Z,75.29
2022-11-15T00:42:19.442Z,75.33
2022-11-15T00:43:40.798Z,75.04
2022-11-15T00:45:04.142Z,74.75
2022-11-15T00:46:24.455Z,74.86
2022-11-15T00:47:47.710Z,74.79
2022-11-15T00:49:07.487Z,74.89
2022-11-15T00:50:40.923Z,75.28
2022-11-15T00:52:00.942Z,75.34
2022-11-15T00:53:21.501Z,75.27
2022-11-15T00:54:41.431Z,75.26
2022-11-15T00:56:04.739Z,74.57
2022-11-15T00:57:25.021Z,74.75
2022-11-15T00:58:51.365Z,74.97
2022-11-15T01:00:11.595Z,74.98
2022-11-15T01:01:31.770Z,74.83
2022-11-15T01:02:51.774Z,74.68
2022-11-15T01:04:17.967Z,74.86
2022-11-15T01:05:38.246Z,75.44
2022-11-15T01:07:01.255Z,75.23
2022-11-15T01:08:29.022Z,75.50
2022-11-15T01:10:04.557Z,76.12
2022-11-15T01:11:24.762Z,75.94
2022-11-15T01:12:44.954Z,76.15
2022-11-15T01:14:07.011Z,75.89
2022-11-15T01:15:26.985Z,76.41
2022-11-15T01:16:47.112Z,76.33
2022-11-15T01:18:07.433Z,76.22
2022-11-15T01:19:35.834Z,75.85
2022-11-15T01:21:08.631Z,75.64
2022-11-15T01:22:28.499Z,75.27
2022-11-15T01:23:48.674Z,74.84
2022-11-15T01:25:16.023Z,74.72
2022-11-15T01:26:36.145Z,74.58
2022-11-15T01:27:56.190Z,75.10
2022-11-15T01:30:53.006Z,74.79
2022-11-15T01:32:13.079Z,74.57
2022-11-15T01:33:33.984Z,74.21
2022-11-15T01:34:57.491Z,74.46
2022-11-15T01:36:19.438Z,74.57
2022-11-15T01:37:39.423Z,74.62
2022-11-15T01:38:59.868Z,74.58
2022-11-15T01:40:24.849Z,74.37
2022-11-15T01:41:44.926Z,74.42
2022-11-15T01:43:24.330Z,74.32
2022-11-15T01:44:45.626Z,74.17
2022-11-15T01:46:25.231Z,74.33
2022-11-15T01:47:49.898Z,74.33
2022-11-15T01:49:14.338Z,74.25
2022-11-15T01:50:37.047Z,73.90
2022-11-15T01:51:57.011Z,73.74
2022-11-15T01:53:23.594Z,74.11
2022-11-15T01:54:45.904Z,74.06
2022-11-15T01:56:07.606Z,73.99
2022-11-15T01:57:29.776Z,74.04
2022-11-15T01:58:56.627Z,74.04
2022-11-15T02:00:17.145Z,74.51
2022-11-15T02:01:39.319Z,74.44
2022-11-15T02:02:59.496Z,74.73
2022-11-15T02:04:25.932Z,75.06
2022-11-15T02:05:46.178Z,75.09
2022-11-15T02:07:06.517Z,74.86
2022-11-15T02:08:27.462Z,74.81
2022-11-15T02:09:47.872Z,74.96
2022-11-15T02:11:09.055Z,74.71
2022-11-15T02:12:37.437Z,75.12
2022-11-15T02:13:57.775Z,75.53
2022-11-15T02:15:30.182Z,75.60
2022-11-15T02:18:47.795Z,75.62
2022-11-15T02:20:25.455Z,75.65
2022-11-15T02:23:44.358Z,75.44
2022-11-15T02:25:16.639Z,75.17
2022-11-15T02:26:42.779Z,75.35
2022-11-15T02:28:07.469Z,75.39
2022-11-15T02:29:56.903Z,75.52
2022-11-15T02:31:16.994Z,75.22
2022-11-15T02:32:39.898Z,75.45
2022-11-15T02:34:06.230Z,75.17
2022-11-15T02:35:41.173Z,75.06
2022-11-15T02:37:16.604Z,75.17
2022-11-15T02:38:56.660Z,74.79
2022-11-15T02:40:29.010Z,74.43
2022-11-15T02:42:27.759Z,74.10
2022-11-15T02:43:57.677Z,74.77
2022-11-15T02:45:22.973Z,75.29
2022-11-15T02:47:05.317Z,75.67
2022-11-15T02:48:25.134Z,75.48
2022-11-15T02:49:46.631Z,75.96
2022-11-15T02:51:13.842Z,75.88
2022-11-15T02:52:33.805Z,76.18
2022-11-15T02:53:54.517Z,76.52
2022-11-15T02:55:27.366Z,76.14
2022-11-15T02:56:47.583Z,75.83
2022-11-15T02:58:26.594Z,76.20
2022-11-15T03:00:04.750Z,76.71
2022-11-15T03:01:43.399Z,76.69
2022-11-15T03:03:06.415Z,76.64
2022-11-15T03:04:45.229Z,76.60
2022-11-15T03:06:08.140Z,76.01
2022-11-15T03:07:33.603Z,76.16
2022-11-15T03:09:03.003Z,76.83
2022-11-15T03:10:29.998Z,76.68
2022-11-15T03:11:56.373Z,76.66
2022-11-15T03:13:34.899Z,76.29
2022-11-15T03:14:59.697Z,75.94
2022-11-15T03:16:21.452Z,76.22
2022-11-15T03:17:53.182Z,76.55
2022-11-15T03:19:14.490Z,76.73
2022-11-15T03:20:34.459Z,76.68
2022-11-15T03:22:04.099Z,76.71
2022-11-15T03:23:25.507Z,76.72
2022-11-15T03:24:46.409Z,76.45
2022-11-15T03:26:08.130Z,76.47
2022-11-15T03:27:28.819Z,76.30
2022-11-15T03:28:51.605Z,76.49
2022-11-15T03:30:14.621Z,76.60
2022-11-15T03:31:53.865Z,76.70
2022-11-15T03:33:13.817Z,76.43
2022-11-15T03:35:00.370Z,75.85
2022-11-15T03:36:20.637Z,76.18
2022-11-15T03:37:52.606Z,75.83
2022-11-15T03:39:20.261Z,75.45
2022-11-15T03:40:45.663Z,75.36
2022-11-15T03:42:24.414Z,75.24
2022-11-15T03:43:48.795Z,74.99
2022-11-15T03:45:17.843Z,74.92
2022-11-15T03:46:37.639Z,74.67
2022-11-15T03:48:23.175Z,74.44
2022-11-15T03:49:45.145Z,74.39
2022-11-15T03:51:05.194Z,74.30
2022-11-15T03:52:32.392Z,74.29
2022-11-15T03:53:52.578Z,73.85
2022-11-15T03:55:13.893Z,74.01
2022-11-15T03:56:33.995Z,74.06
2022-11-15T03:57:54.626Z,73.72
2022-11-15T03:59:14.439Z,73.95
2022-11-15T04:00:35.566Z,73.90
2022-11-15T04:02:02.760Z,73.83
2022-11-15T04:03:35.118Z,73.88
2022-11-15T04:04:55.579Z,73.63
2022-11-15T04:06:15.639Z,73.88
2022-11-15T04:07:41.396Z,73.75
2022-11-15T04:09:01.914Z,73.56
2022-11-15T04:10:24.026Z,74.20
2022-11-15T04:11:46.223Z,74.21
2022-11-15T04:13:06.239Z,73.95
2022-11-15T04:14:28.622Z,74.49
2022-11-15T04:15:48.733Z,74.54
2022-11-15T04:17:08.911Z,74.53
2022-11-15T04:18:28.981Z,74.60
2022-11-15T04:20:07.527Z,74.68
2022-11-15T04:22:14.290Z,74.80
2022-11-15T04:23:53.411Z,75.17
2022-11-15T04:25:13.169Z,74.89
2022-11-15T04:28:08.226Z,75.76
2022-11-15T04:29:37.611Z,75.96
2022-11-15T04:31:00.031Z,75.85
2022-11-15T04:32:22.810Z,75.50
2022-11-15T04:33:46.549Z,75.79
2022-11-15T04:35:06.877Z,75.52
2022-11-15T04:36:54.238Z,75.96
2022-11-15T04:38:16.881Z,75.67
2022-11-15T04:39:39.717Z,75.52
2022-11-15T04:41:02.708Z,75.39
2022-11-15T04:43:56.545Z,75.30
2022-11-15T04:45:21.727Z,74.81
2022-11-15T04:46:41.886Z,74.40
2022-11-15T04:48:02.078Z,74.54
2022-11-15T04:49:24.610Z,74.99
2022-11-15T04:50:47.148Z,74.85
2022-11-15T04:52:07.253Z,74.87
2022-11-15T04:53:29.926Z,74.79
2022-11-15T04:54:50.559Z,74.91
2022-11-15T04:56:13.702Z,74.68
2022-11-15T04:57:42.271Z,74.68
2022-11-15T04:59:02.302Z,74.34
2022-11-15T05:00:25.542Z,74.49
2022-11-15T05:01:45.699Z,74.29
2022-11-15T05:03:25.098Z,74.41
2022-11-15T05:04:46.982Z,74.19
2022-11-15T05:06:07.167Z,74.21
2022-11-15T05:07:33.122Z,74.11
2022-11-15T05:08:53.041Z,73.74
2022-11-15T05:10:13.295Z,73.83
2022-11-15T05:11:33.456Z,73.79
2022-11-15T05:13:02.129Z,74.08
2022-11-15T05:14:22.118Z,74.00
2022-11-15T05:15:42.039Z,74.11
2022-11-15T05:17:01.867Z,74.00
2022-11-15T05:18:23.711Z,74.01
2022-11-15T05:19:46.763Z,73.95
2022-11-15T05:21:07.505Z,74.11
2022-11-15T05:22:30.290Z,73.80
2022-11-15T05:23:50.587Z,73.47
2022-11-15T05:25:10.655Z,73.73
2022-11-15T05:26:30.629Z,73.78
2022-11-15T05:27:50.751Z,73.49
2022-11-15T05:29:19.425Z,73.67
2022-11-15T05:30:39.369Z,73.48
2022-11-15T05:31:59.777Z,73.89
2022-11-15T05:33:19.937Z,73.79
2022-11-15T05:34:40.639Z,73.98
2022-11-15T05:36:05.430Z,74.20
2022-11-15T05:37:25.557Z,74.36
2022-11-15T05:38:46.563Z,74.50
2022-11-15T05:40:08.976Z,74.67
2022-11-15T05:43:22.534Z,74.63
2022-11-15T05:44:49.228Z,75.27
2022-11-15T05:46:15.244Z,75.52
2022-11-15T05:47:35.580Z,75.52
2022-11-15T05:49:21.058Z,75.55
2022-11-15T05:50:42.377Z,75.73
2022-11-15T05:52:03.734Z,75.68
2022-11-15T05:53:23.961Z,75.63
2022-11-15T05:54:46.214Z,75.57
2022-11-15T05:56:07.558Z,75.27
2022-11-15T05:57:27.479Z,75.08
2022-11-15T05:58:47.731Z,74.88
2022-11-15T06:00:09.166Z,74.54
2022-11-15T06:01:29.516Z,74.40
2022-11-15T06:02:49.887Z,73.95
2022-11-15T06:04:10.145Z,73.86
2022-11-15T06:05:31.688Z,73.80
2022-11-15T06:06:51.887Z,73.73
2022-11-15T06:08:15.718Z,73.40
2022-11-15T06:09:35.617Z,73.22
2022-11-15T06:11:03.539Z,73.80
2022-11-15T06:12:23.359Z,73.82
2022-11-15T06:13:46.326Z,73.64
2022-11-15T06:15:06.474Z,73.54
2022-11-15T06:16:26.174Z,73.65
2022-11-15T06:17:52.794Z,73.40
2022-11-15T06:19:15.307Z,73.28
2022-11-15T06:20:43.153Z,73.24
2022-11-15T06:22:03.383Z,73.18
2022-11-15T06:25:04.189Z,73.33
2022-11-15T06:26:27.612Z,73.25
2022-11-15T06:27:51.963Z,73.21
2022-11-15T06:29:11.838Z,73.14
2022-11-15T06:30:31.826Z,73.36
2022-11-15T06:31:51.956Z,73.16
2022-11-15T06:33:11.927Z,73.14
2022-11-15T06:34:56.939Z,72.76
2022-11-15T06:36:18.267Z,73.10
2022-11-15T06:37:41.904Z,73.34
2022-11-15T06:39:01.777Z,73.54
2022-11-15T06:40:21.856Z,73.55
2022-11-15T06:41:48.118Z,73.57
2022-11-15T06:43:08.653Z,73.60
2022-11-15T06:44:35.706Z,74.09
2022-11-15T06:45:55.776Z,73.85
2022-11-15T06:47:21.820Z,73.60
2022-11-15T06:48:41.570Z,73.66
2022-11-15T06:50:01.719Z,73.60
2022-11-15T06:51:29.347Z,73.57
2022-11-15T06:52:49.420Z,73.53
2022-11-15T06:54:17.625Z,73.10
2022-11-15T06:55:37.731Z,73.02
2022-11-15T06:56:57.723Z,73.31
2022-11-15T06:58:26.473Z,73.67
2022-11-15T06:59:46.675Z,73.60
2022-11-15T07:01:07.904Z,73.57
2022-11-15T07:02:28.621Z,73.58
2022-11-15T07:04:02.105Z,73.20
2022-11-15T07:05:22.683Z,73.34
2022-11-15T07:06:42.780Z,73.47
2022-11-15T07:08:05.321Z,73.77
2022-11-15T07:11:06.473Z,73.60
2022-11-15T07:12:31.499Z,73.31
2022-11-15T07:13:53.998Z,73.34
2022-11-15T07:15:14.141Z,73.25
2022-11-15T07:16:34.374Z,73.26
2022-11-15T07:17:54.457Z,72.80
2022-11-15T07:19:14.691Z,73.10
2022-11-15T07:20:34.841Z,73.09
2022-11-15T07:21:54.770Z,72.83
2022-11-15T07:23:14.850Z,72.73
2022-11-15T07:24:35.072Z,72.63
2022-11-15T07:26:01.088Z,73.00
2022-11-15T07:27:21.753Z,73.19
2022-11-15T07:28:47.315Z,73.06
2022-11-15T07:30:16.693Z,73.13
2022-11-15T07:31:36.874Z,73.13
2022-11-15T07:32:57.151Z,73.02
2022-11-15T07:34:18.710Z,73.17
2022-11-15T07:35:38.820Z,73.07
2022-11-15T07:37:01.282Z,72.85
2022-11-15T07:38:21.521Z,72.79
2022-11-15T07:39:41.782Z,72.84
2022-11-15T07:41:03.349Z,72.89
2022-11-15T07:42:41.830Z,72.74
2022-11-15T07:44:16.286Z,72.85
2022-11-15T07:45:41.731Z,72.70
2022-11-15T07:47:04.115Z,72.57
2022-11-15T07:48:24.274Z,72.94
2022-11-15T07:49:47.675Z,72.47
2022-11-15T07:51:13.777Z,72.58
2022-11-15T07:52:36.447Z,72.94
2022-11-15T07:53:56.646Z,72.79
2022-11-15T07:55:16.739Z,72.77
2022-11-15T07:56:37.001Z,72.63
2022-11-15T07:58:03.654Z,72.54
2022-11-15T07:59:23.543Z,72.67
2022-11-15T08:02:18.829Z,72.37
2022-11-15T08:03:55.561Z,72.44
2022-11-15T08:05:15.793Z,72.60
2022-11-15T08:06:44.247Z,72.34
2022-11-15T08:08:06.434Z,72.13
2022-11-15T08:09:38.020Z,72.32
2022-11-15T08:10:58.586Z,72.37
2022-11-15T08:12:18.910Z,72.26
2022-11-15T08:13:40.714Z,72.26
2022-11-15T08:15:00.784Z,72.14
2022-11-15T08:16:21.013Z,72.78
2022-11-15T08:17:40.987Z,72.51
2022-11-15T08:19:01.181Z,72.74
2022-11-15T08:20:27.462Z,73.11
2022-11-15T08:21:47.701Z,72.93
2022-11-15T08:24:45.115Z,73.22
2022-11-15T08:26:05.360Z,73.31
2022-11-15T08:27:28.284Z,73.40
2022-11-15T08:28:51.081Z,72.96
2022-11-15T08:30:16.981Z,72.87
2022-11-15T08:31:39.095Z,72.96
2022-11-15T08:32:59.441Z,72.93
2022-11-15T08:34:20.719Z,72.85
2022-11-15T08:35:43.635Z,73.18
2022-11-15T08:37:03.676Z,73.02
2022-11-15T08:38:25.790Z,72.87
2022-11-15T08:39:53.243Z,73.25
2022-11-15T08:41:39.568Z,73.58
2022-11-15T08:43:03.316Z,73.46
2022-11-15T08:44:25.536Z,73.29
2022-11-15T08:45:46.007Z,73.05
2022-11-15T08:47:08.126Z,73.17
2022-11-15T08:48:36.869Z,72.87
2022-11-15T08:49:59.428Z,72.85
2022-11-15T08:51:19.635Z,72.60
2022-11-15T08:52:54.658Z,72.70
2022-11-15T08:54:14.707Z,72.46
2022-11-15T08:55:37.846Z,72.67
2022-11-15T08:56:58.842Z,72.55
2022-11-15T08:58:21.630Z,72.27
2022-11-15T08:59:41.503Z,72.42
2022-11-15T09:01:03.596Z,72.32
2022-11-15T09:02:23.883Z,72.35
2022-11-15T09:03:54.340Z,71.94
2022-11-15T09:05:16.615Z,71.99
2022-11-15T09:06:39.723Z,72.31
2022-11-15T09:08:13.862Z,72.41
2022-11-15T09:09:46.534Z,72.33
2022-11-15T09:11:06.765Z,72.50
2022-11-15T09:12:26.982Z,72.35
2022-11-15T09:15:21.207Z,72.03
2022-11-15T09:18:18.558Z,71.88
2022-11-15T09:19:46.752Z,71.46
2022-11-15T09:21:07.967Z,71.79
2022-11-15T09:22:27.797Z,71.96
2022-11-15T09:23:57.047Z,71.73
2022-11-15T09:25:17.252Z,71.30
2022-11-15T09:26:37.426Z,71.50
2022-11-15T09:27:57.878Z,71.76
2022-11-15T09:29:18.229Z,71.61
2022-11-15T09:30:38.113Z,71.73
2022-11-15T09:32:01.291Z,72.25
2022-11-15T09:34:55.775Z,72.10
2022-11-15T09:36:15.919Z,72.28
2022-11-15T09:37:44.731Z,72.25
2022-11-15T09:39:04.833Z,72.43
2022-11-15T09:40:31.356Z,72.44
2022-11-15T09:42:07.156Z,72.29
2022-11-15T09:43:30.159Z,72.08
2022-11-15T09:45:08.551Z,71.93
2022-11-15T09:46:30.503Z,71.78
2022-11-15T09:47:56.542Z,72.01
2022-11-15T09:49:17.839Z,71.81
2022-11-15T09:50:38.036Z,71.96
2022-11-15T09:51:50.886Z,71.97
2022-11-15T09:52:57.582Z,71.93
2022-11-15T09:55:56.190Z,72.13
2022-11-15T09:57:05.526Z,72.32
2022-11-15T09:58:11.881Z,72.69
2022-11-15T09:59:32.518Z,72.79
2022-11-15T10:00:46.950Z,73.29
2022-11-15T10:02:08.153Z,73.15
2022-11-15T10:03:13.670Z,72.99
2022-11-15T10:04:18.772Z,72.85
2022-11-15T10:05:21.694Z,72.91
2022-11-15T10:06:36.569Z,72.66
2022-11-15T10:07:58.372Z,72.74
2022-11-15T10:09:02.877Z,72.78
2022-11-15T10:10:16.255Z,72.93
2022-11-15T10:11:36.644Z,73.12
2022-11-15T10:12:39.067Z,73.23
2022-11-15T10:13:57.823Z,73.29
2022-11-15T10:15:05.418Z,73.32
2022-11-15T10:16:07.021Z,73.63
2022-11-15T10:17:21.008Z,73.68
2022-11-15T10:18:35.407Z,74.03
2022-11-15T10:19:40.233Z,73.78
2022-11-15T10:20:49.038Z,73.93
2022-11-15T10:21:57.524Z,73.93
2022-11-15T10:23:02.195Z,73.77
2022-11-15T10:24:07.954Z,73.64
2022-11-15T10:25:09.413Z,73.58
2022-11-15T10:26:14.670Z,73.66
2022-11-15T10:27:19.598Z,73.57
2022-11-15T10:28:37.055Z,73.38
2022-11-15T10:29:41.404Z,73.52
2022-11-15T10:30:47.726Z,73.58
2022-11-15T10:31:51.704Z,73.58
2022-11-15T10:32:53.192Z,73.44
2022-11-15T10:35:28.949Z,73.53
2022-11-15T10:36:30.412Z,73.63
2022-11-15T10:37:32.276Z,73.82
2022-11-15T10:38:46.798Z,73.73
2022-11-15T10:40:02.098Z,73.39
2022-11-15T10:41:07.560Z,73.61
2022-11-15T10:42:19.991Z,73.53
2022-11-15T10:43:27.187Z,74.08
2022-11-15T10:44:44.671Z,73.74
2022-11-15T10:45:47.115Z,74.11
2022-11-15T10:46:57.895Z,73.79
2022-11-15T10:48:22.426Z,73.54
2022-11-15T10:49:29.670Z,73.74
2022-11-15T10:50:32.560Z,73.81
2022-11-15T10:51:34.031Z,73.90
2022-11-15T10:52:38.207Z,74.01
2022-11-15T10:53:44.779Z,74.38
2022-11-15T10:55:05.119Z,74.05
2022-11-15T10:56:07.887Z,73.84
2022-11-15T10:57:19.011Z,74.04
2022-11-15T10:58:31.888Z,74.27
2022-11-15T10:59:38.788Z,74.56
2022-11-15T11:01:56.631Z,74.98
2022-11-15T11:03:07.849Z,74.96
2022-11-15T11:04:09.651Z,74.95
2022-11-15T11:05:27.354Z,75.13
2022-11-15T11:06:29.954Z,75.15
2022-11-15T11:07:33.698Z,75.12
2022-11-15T11:08:35.274Z,74.90
2022-11-15T11:09:55.463Z,74.67
2022-11-15T11:11:03.205Z,74.67
2022-11-15T11:12:10.846Z,74.36
2022-11-15T11:13:14.720Z,74.59
2022-11-15T11:14:35.391Z,74.72
2022-11-15T11:15:39.147Z,74.54
2022-11-15T11:16:49.202Z,74.59
2022-11-15T11:17:53.577Z,74.83
2022-11-15T11:19:04.829Z,74.52
2022-11-15T11:20:25.092Z,74.79
2022-11-15T11:22:54.259Z,74.97
2022-11-15T11:24:01.939Z,74.76
2022-11-15T11:25:13.314Z,74.51
2022-11-15T11:26:33.180Z,74.59
2022-11-15T11:27:36.956Z,74.57
2022-11-15T11:28:43.147Z,74.58
2022-11-15T11:30:03.066Z,74.90
2022-11-15T11:31:10.450Z,75.22
2022-11-15T11:32:31.039Z,74.82
2022-11-15T11:33:33.734Z,74.97
2022-11-15T11:34:35.228Z,74.85
2022-11-15T11:35:43.719Z,74.75
2022-11-15T11:37:04.847Z,74.77
2022-11-15T11:38:24.999Z,74.72
2022-11-15T11:39:35.670Z,74.49
2022-11-15T11:40:56.730Z,74.74
2022-11-15T11:41:59.832Z,74.59
2022-11-15T11:43:27.347Z,74.66
2022-11-15T11:44:31.151Z,74.51
2022-11-15T11:45:52.833Z,74.49
2022-11-15T11:47:00.105Z,74.57
2022-11-15T11:48:20.261Z,74.46
2022-11-15T11:49:21.775Z,74.61
2022-11-15T11:50:34.401Z,74.49
2022-11-15T11:51:38.337Z,74.31
2022-11-15T11:52:44.702Z,74.33
2022-11-15T11:53:50.093Z,74.68
2022-11-15T11:55:09.119Z,74.66
2022-11-15T11:56:36.931Z,74.39
2022-11-15T11:57:43.701Z,74.42
2022-11-15T11:58:45.903Z,74.38
2022-11-15T11:59:56.686Z,74.48
2022-11-15T12:01:09.934Z,74.65
2022-11-15T12:02:26.047Z,74.94
2022-11-15T12:03:57.870Z,74.72
2022-11-15T12:05:04.430Z,74.67
2022-11-15T12:06:07.091Z,74.64
2022-11-15T12:08:27.336Z,74.15
2022-11-15T12:09:31.815Z,74.30
2022-11-15T12:10:33.663Z,74.45
2022-11-15T12:11:44.228Z,74.50
2022-11-15T12:12:49.603Z,74.37
2022-11-15T12:13:51.904Z,74.44
2022-11-15T12:15:03.402Z,74.26
2022-11-15T12:16:20.669Z,74.31
2022-11-15T12:17:26.601Z,74.30
2022-11-15T12:18:28.983Z,74.30
2022-11-15T12:19:33.849Z,74.38
2022-11-15T12:20:36.841Z,74.34
2022-11-15T12:21:58.724Z,74.56
2022-11-15T12:23:00.298Z,74.70
2022-11-15T12:24:05.171Z,74.74
2022-11-15T12:25:16.826Z,74.63
2022-11-15T12:26:32.203Z,74.58
2022-11-15T12:27:38.553Z,74.79
2022-11-15T12:28:52.865Z,74.88
2022-11-15T12:30:05.311Z,74.80
2022-11-15T12:31:23.408Z,74.60
2022-11-15T12:32:40.271Z,74.70
2022-11-15T12:33:42.936Z,74.81
2022-11-15T12:34:46.078Z,74.96
2022-11-15T12:35:58.207Z,74.84
2022-11-15T12:37:02.049Z,74.86
2022-11-15T12:38:15.168Z,74.66
2022-11-15T12:40:33.264Z,74.53
2022-11-15T12:41:35.650Z,74.52
2022-11-15T12:42:44.100Z,74.59
2022-11-15T12:43:48.759Z,74.86
2022-11-15T12:44:50.826Z,75.05
2022-11-15T12:45:52.289Z,74.98
2022-11-15T12:47:01.430Z,74.86
2022-11-15T12:48:26.229Z,74.98
2022-11-15T12:49:45.947Z,75.04
2022-11-15T12:50:50.375Z,75.29
2022-11-15T12:52:01.014Z,75.22
2022-11-15T12:53:30.842Z,75.08
2022-11-15T12:54:40.902Z,75.05
2022-11-15T12:55:42.406Z,74.80
2022-11-15T12:56:43.930Z,74.86
2022-11-15T12:57:53.310Z,74.68
2022-11-15T12:58:58.763Z,74.59
2022-11-15T13:00:15.639Z,74.44
2022-11-15T13:01:51.412Z,74.78
2022-11-15T13:03:11.621Z,74.92
2022-11-15T13:04:20.141Z,74.94
2022-11-15T13:05:41.689Z,75.17
2022-11-15T13:07:11.501Z,75.25
2022-11-15T13:08:17.819Z,75.20
2022-11-15T13:09:44.790Z,74.93
2022-11-15T13:10:46.841Z,75.06
2022-11-15T13:11:53.694Z,75.14
2022-11-15T13:12:56.301Z,75.27
2022-11-15T13:13:57.819Z,75.18
2022-11-15T13:15:23.323Z,75.10
2022-11-15T13:16:35.926Z,74.97
2022-11-15T13:17:40.719Z,74.88
2022-11-15T13:18:44.518Z,74.61
2022-11-15T13:19:47.406Z,74.90
2022-11-15T13:21:00.960Z,75.12
2022-11-15T13:22:24.285Z,74.63
2022-11-15T13:23:25.914Z,75.07
2022-11-15T13:24:29.709Z,75.13
2022-11-15T13:25:39.426Z,74.80
2022-11-15T13:26:45.881Z,74.89
2022-11-15T13:27:51.039Z,74.60
2022-11-15T13:28:56.883Z,74.38
2022-11-15T13:29:58.326Z,74.24
2022-11-15T13:31:00.473Z,74.20
2022-11-15T13:32:04.682Z,73.82
2022-11-15T13:33:09.812Z,73.86
2022-11-15T13:34:50.590Z,74.03
2022-11-15T13:37:10.780Z,73.75
2022-11-15T13:38:20.638Z,73.71
2022-11-15T13:39:27.255Z,73.67
2022-11-15T13:40:31.281Z,73.68
2022-11-15T13:41:35.813Z,74.29
2022-11-15T13:42:40.559Z,74.24
2022-11-15T13:43:44.836Z,74.29
2022-11-15T13:44:56.219Z,73.95
2022-11-15T13:46:07.966Z,73.71
2022-11-15T13:47:22.835Z,73.51
2022-11-15T13:48:25.886Z,73.44
2022-11-15T13:49:30.045Z,73.34
2022-11-15T13:50:32.770Z,73.61
2022-11-15T13:52:08.656Z,73.66
2022-11-15T13:53:10.219Z,73.49
2022-11-15T13:54:19.932Z,73.48
2022-11-15T13:55:22.527Z,73.34
2022-11-15T13:56:27.711Z,73.36
2022-11-15T13:57:48.797Z,73.67
2022-11-15T13:58:54.221Z,73.68
2022-11-15T14:00:00.798Z,73.63
2022-11-15T14:01:03.830Z,73.63
2022-11-15T14:02:25.801Z,73.80
2022-11-15T14:03:31.192Z,73.83
2022-11-15T14:04:42.955Z,73.63
2022-11-15T14:05:44.578Z,73.46
2022-11-15T14:06:47.061Z,73.46
2022-11-15T14:07:58.742Z,73.52
2022-11-15T14:09:44.274Z,73.55
2022-11-15T14:10:45.739Z,73.40
2022-11-15T14:11:59.127Z,73.15
2022-11-15T14:13:00.876Z,72.98
2022-11-15T14:14:08.254Z,73.02
2022-11-15T14:15:30.979Z,73.08
2022-11-15T14:16:58.185Z,72.89
2022-11-15T14:18:02.936Z,73.07
2022-11-15T14:19:04.862Z,72.88
2022-11-15T14:20:41.801Z,72.60
2022-11-15T14:22:05.084Z,72.82
2022-11-15T14:23:19.098Z,72.71
2022-11-15T14:24:21.695Z,72.67
2022-11-15T14:25:23.779Z,72.52
2022-11-15T14:26:37.187Z,72.60
2022-11-15T14:27:38.966Z,72.84
2022-11-15T14:28:40.615Z,72.56
2022-11-15T14:29:43.906Z,72.48
2022-11-15T14:30:51.196Z,72.42
2022-11-15T14:31:53.361Z,72.37
2022-11-15T14:32:54.840Z,72.49
2022-11-15T14:33:59.945Z,72.53
2022-11-15T14:35:04.967Z,72.41
2022-11-15T14:36:26.719Z,72.48
2022-11-15T14:37:53.998Z,72.31
2022-11-15T14:38:56.039Z,72.32
2022-11-15T14:39:57.489Z,71.95
2022-11-15T14:41:01.010Z,72.01
2022-11-15T14:42:02.486Z,72.06
2022-11-15T14:43:03.950Z,72.02
2022-11-15T14:44:05.833Z,72.05
2022-11-15T14:45:19.899Z,71.99
2022-11-15T14:46:21.942Z,71.98
2022-11-15T14:47:23.461Z,71.71
2022-11-15T14:48:35.353Z,71.94
2022-11-15T14:49:40.280Z,71.98
2022-11-15T14:50:44.780Z,71.90
2022-11-15T14:53:01.840Z,71.85
2022-11-15T14:54:03.999Z,71.74
2022-11-15T14:55:36.158Z,71.87
2022-11-15T14:56:37.610Z,71.63
2022-11-15T14:57:39.094Z,71.71
2022-11-15T14:58:40.973Z,71.71
2022-11-15T14:59:42.463Z,71.75
2022-11-15T15:00:43.999Z,71.56
2022-11-15T15:01:48.370Z,71.52
2022-11-15T15:02:52.145Z,71.47
2022-11-15T15:03:59.665Z,71.68
2022-11-15T15:05:04.039Z,71.71
2022-11-15T15:06:05.675Z,71.71
2022-11-15T15:07:07.205Z,71.69
2022-11-15T15:08:09.072Z,71.45
2022-11-15T15:09:10.571Z,71.79
2022-11-15T15:10:38.289Z,71.74
2022-11-15T15:11:34.658Z,71.72
2022-11-15T15:14:01.307Z,71.59
2022-11-15T15:16:18.294Z,71.76
2022-11-15T15:17:19.848Z,71.80
2022-11-15T15:18:30.546Z,71.66
2022-11-15T15:19:39.618Z,71.52
2022-11-15T15:20:41.339Z,71.36
2022-11-15T15:21:43.233Z,71.39
2022-11-15T15:22:44.887Z,71.21
2022-11-15T15:23:58.603Z,71.47
2022-11-15T15:25:02.134Z,71.78
2022-11-15T15:26:03.990Z,71.50
2022-11-15T15:27:05.480Z,71.48
2022-11-15T15:28:06.938Z,71.44
2022-11-15T15:29:09.862Z,71.30
2022-11-15T15:30:11.547Z,71.57
2022-11-15T15:31:15.046Z,71.65
2022-11-15T15:32:16.577Z,71.48
2022-11-15T15:33:21.031Z,71.33
2022-11-15T15:34:22.547Z,71.39
2022-11-15T15:35:31.099Z,71.38
2022-11-15T15:36:32.555Z,71.26
2022-11-15T15:37:34.147Z,71.11
2022-11-15T15:38:38.048Z,71.29
2022-11-15T15:39:39.503Z,71.22
2022-11-15T15:40:45.875Z,71.24
2022-11-15T15:41:47.350Z,71.33
2022-11-15T15:42:54.609Z,71.26
2022-11-15T15:43:56.092Z,71.27
2022-11-15T15:44:57.582Z,71.33
2022-11-15T15:45:59.943Z,71.30
2022-11-15T15:47:08.473Z,71.45
2022-11-15T15:48:16.967Z,71.44
2022-11-15T15:49:18.970Z,71.29
2022-11-15T15:50:24.867Z,71.33
2022-11-15T15:51:26.401Z,71.24
2022-11-15T15:52:33.915Z,71.24
2022-11-15T15:53:35.387Z,71.11
2022-11-15T15:54:43.064Z,71.25
2022-11-15T15:55:53.367Z,71.43
2022-11-15T15:56:56.335Z,71.46
2022-11-15T15:57:57.878Z,71.44
2022-11-15T15:59:01.663Z,71.53
2022-11-15T16:00:06.598Z,71.53
2022-11-15T16:01:13.562Z,71.70
2022-11-15T16:02:15.095Z,71.75
2022-11-15T16:03:19.106Z,71.57
2022-11-15T16:04:22.971Z,71.60
2022-11-15T16:05:36.467Z,71.58
2022-11-15T16:06:39.304Z,71.71
2022-11-15T16:07:41.492Z,71.57
2022-11-15T16:09:14.201Z,71.46
2022-11-15T16:10:19.473Z,71.67
2022-11-15T16:11:25.071Z,71.65
2022-11-15T16:12:26.987Z,71.72
2022-11-15T16:13:28.527Z,71.52
2022-11-15T16:14:30.019Z,71.52
2022-11-15T16:15:34.662Z,71.43
2022-11-15T16:16:36.422Z,71.54
2022-11-15T16:17:49.110Z,71.52
2022-11-15T16:18:57.724Z,71.17
2022-11-15T16:20:02.414Z,71.51
2022-11-15T16:21:03.989Z,71.33
2022-11-15T16:22:05.480Z,71.28
2022-11-15T16:23:11.146Z,71.15
2022-11-15T16:24:12.733Z,71.51
2022-11-15T16:25:16.018Z,71.45
2022-11-15T16:26:49.098Z,71.66
2022-11-15T16:27:50.766Z,71.98
2022-11-15T16:28:53.045Z,71.78
2022-11-15T16:29:54.614Z,71.61
2022-11-15T16:31:08.483Z,71.44
2022-11-15T16:33:25.502Z,71.69
2022-11-15T16:34:31.662Z,71.38
2022-11-15T16:35:37.863Z,71.48
2022-11-15T16:36:41.716Z,71.28
2022-11-15T16:37:44.920Z,71.37
2022-11-15T16:39:05.085Z,71.29
2022-11-15T16:40:18.990Z,71.13
2022-11-15T16:41:23.325Z,71.37
2022-11-15T16:42:24.879Z,71.30
2022-11-15T16:43:26.447Z,71.24
2022-11-15T16:44:35.334Z,71.12
2022-11-15T16:45:39.327Z,71.14
2022-11-15T16:46:43.749Z,71.44
2022-11-15T16:47:45.275Z,71.44
2022-11-15T16:48:46.866Z,71.20
2022-11-15T16:49:51.486Z,71.12
2022-11-15T16:50:59.282Z,71.12
2022-11-15T16:52:03.384Z,71.05
2022-11-15T16:53:08.245Z,71.08
2022-11-15T16:54:09.740Z,70.95
2022-11-15T16:55:11.180Z,71.05
2022-11-15T16:56:25.942Z,70.98
2022-11-15T16:57:51.074Z,70.92
2022-11-15T16:59:06.715Z,70.83
2022-11-15T17:00:10.211Z,70.76
2022-11-15T17:01:16.779Z,70.79
2022-11-15T17:02:18.343Z,70.93
2022-11-15T17:03:20.135Z,70.82
2022-11-15T17:04:22.674Z,70.79